首页
METAR-TAF:

METAR-TAF

机场 :

帕波, 匈牙利

纬度: 47-12N, 经度: 017-30E, 海拔: 145米

当前天气观测

该预报发布于58分钟前的15:45 UTC
风速8节,风向南转南东,在东南南转西南之间变化
温度 11°C
湿度 24%
气压 1012 hPa
能见度10公里或以上
1500米以下无云,无积雨云

METAR: LHPA 021545Z 16008KT 140V200 CAVOK 11/M09 Q1012 NOSIG RMK BLU

时间: 18:43 (16:43 UTC)

预报

该预报发布于5小时和28分钟前的11:15 UTC
预报有效从02日的 12点(UTC)到 03日的 12点(UTC)
风速10节,风向南转西南
能见度10公里或以上
1500米以下无云,无积雨云
成为
从 02日的 15点(UTC)到 02日的 18点(UTC)
风速6节,风向南转南东
短暂存在
从 03日的 02点(UTC)到 03日的 06点(UTC)
风速3节,风向多变
成为
从 03日的 08点(UTC)到 03日的 11点(UTC)
风速10节,风向北转西北

TAF: LHPA 021115Z 0212/0312 20010KT CAVOK BECMG 0215/0218 16006KT TEMPO 0302/0306 VRB03KT BECMG 0308/0311 33010KT

超过4000个机场的气象观测和天气预报(METAR&TAF报告)。

可查询的气象台以黄色和红色小点在地图上表示。

将鼠标移到小点上方,可查看气象台名称。

然后点击查看天气观测和预报。

如需切换地图:点击带黑十字的绿色按钮放大地图;点击带横线的绿色按钮缩小地图;或者点击绿色箭头查看邻近地区的地图。


METAR-TAF: